sensor_id;sensor_type;location;lat;lon;timestamp;pressure;altitude;pressure_sealevel;temperature;humidity
19761;BME280;10039;42.632;23.408;2023-04-22T00:00:11;94673.44;;;9.78;68.51
19761;BME280;10039;42.632;23.408;2023-04-22T00:02:38;94688.97;;;9.83;69.08
19761;BME280;10039;42.632;23.408;2023-04-22T00:05:04;94679.69;;;9.71;68.63
19761;BME280;10039;42.632;23.408;2023-04-22T00:07:31;94668.47;;;9.60;69.23
19761;BME280;10039;42.632;23.408;2023-04-22T00:09:58;94677.41;;;9.70;68.97
19761;BME280;10039;42.632;23.408;2023-04-22T00:12:25;94677.19;;;9.80;68.57
19761;BME280;10039;42.632;23.408;2023-04-22T00:14:51;94664.53;;;9.68;69.04
19761;BME280;10039;42.632;23.408;2023-04-22T00:17:17;94656.78;;;9.74;68.70
19761;BME280;10039;42.632;23.408;2023-04-22T00:19:43;94653.88;;;9.68;68.45
19761;BME280;10039;42.632;23.408;2023-04-22T00:22:09;94698.38;;;9.87;68.63
19761;BME280;10039;42.632;23.408;2023-04-22T00:24:35;94638.28;;;9.67;69.11
19761;BME280;10039;42.632;23.408;2023-04-22T00:27:01;94665.03;;;9.79;68.54
19761;BME280;10039;42.632;23.408;2023-04-22T00:29:27;94654.03;;;9.77;68.94
19761;BME280;10039;42.632;23.408;2023-04-22T00:31:53;94643.28;;;9.45;69.21
19761;BME280;10039;42.632;23.408;2023-04-22T00:34:19;94687.59;;;9.75;69.57
19761;BME280;10039;42.632;23.408;2023-04-22T00:36:45;94673.59;;;9.51;69.66
19761;BME280;10039;42.632;23.408;2023-04-22T00:39:11;94643.56;;;9.31;69.76
19761;BME280;10039;42.632;23.408;2023-04-22T00:41:40;94640.69;;;9.22;70.19
19761;BME280;10039;42.632;23.408;2023-04-22T00:44:10;94641.97;;;9.14;69.82
19761;BME280;10039;42.632;23.408;2023-04-22T00:46:37;94647.59;;;9.39;69.89
19761;BME280;10039;42.632;23.408;2023-04-22T00:49:04;94642.78;;;9.11;70.57
19761;BME280;10039;42.632;23.408;2023-04-22T00:51:31;94639.41;;;9.11;69.89
19761;BME280;10039;42.632;23.408;2023-04-22T00:53:57;94642.19;;;9.04;69.66
19761;BME280;10039;42.632;23.408;2023-04-22T00:56:24;94650.50;;;9.06;70.37
19761;BME280;10039;42.632;23.408;2023-04-22T00:58:53;94676.72;;;9.27;70.30
19761;BME280;10039;42.632;23.408;2023-04-22T01:01:19;94693.88;;;9.45;70.06
19761;BME280;10039;42.632;23.408;2023-04-22T01:03:47;94687.13;;;9.60;69.66
19761;BME280;10039;42.632;23.408;2023-04-22T01:06:15;94653.66;;;9.40;69.26
19761;BME280;10039;42.632;23.408;2023-04-22T01:08:42;94676.75;;;9.46;69.06
19761;BME280;10039;42.632;23.408;2023-04-22T01:11:08;94686.09;;;9.54;69.43
19761;BME280;10039;42.632;23.408;2023-04-22T01:13:37;94679.63;;;9.55;68.28
19761;BME280;10039;42.632;23.408;2023-04-22T01:16:04;94676.00;;;9.65;68.53
19761;BME280;10039;42.632;23.408;2023-04-22T01:18:33;94668.97;;;9.55;67.79
19761;BME280;10039;42.632;23.408;2023-04-22T01:21:00;94689.84;;;9.76;68.32
19761;BME280;10039;42.632;23.408;2023-04-22T01:23:27;94668.47;;;9.80;67.36
19761;BME280;10039;42.632;23.408;2023-04-22T01:25:53;94667.75;;;9.95;67.42
19761;BME280;10039;42.632;23.408;2023-04-22T01:28:19;94681.47;;;10.13;66.31
19761;BME280;10039;42.632;23.408;2023-04-22T01:30:45;94686.78;;;10.13;66.51
19761;BME280;10039;42.632;23.408;2023-04-22T01:33:14;94654.00;;;9.97;66.00
19761;BME280;10039;42.632;23.408;2023-04-22T01:35:40;94651.72;;;9.60;67.07
19761;BME280;10039;42.632;23.408;2023-04-22T01:38:07;94673.94;;;9.53;67.93
19761;BME280;10039;42.632;23.408;2023-04-22T01:40:37;94684.13;;;9.39;68.06
19761;BME280;10039;42.632;23.408;2023-04-22T01:43:04;94697.00;;;9.40;68.87
19761;BME280;10039;42.632;23.408;2023-04-22T01:45:29;94658.50;;;9.25;68.80
19761;BME280;10039;42.632;23.408;2023-04-22T01:47:56;94655.50;;;9.23;69.13
19761;BME280;10039;42.632;23.408;2023-04-22T01:50:22;94650.88;;;9.27;68.98
19761;BME280;10039;42.632;23.408;2023-04-22T01:52:48;94697.66;;;9.67;68.47
19761;BME280;10039;42.632;23.408;2023-04-22T01:55:14;94682.16;;;9.62;68.84
19761;BME280;10039;42.632;23.408;2023-04-22T01:57:40;94672.56;;;9.45;68.58
19761;BME280;10039;42.632;23.408;2023-04-22T02:00:07;94661.44;;;9.31;68.43
19761;BME280;10039;42.632;23.408;2023-04-22T02:02:33;94672.16;;;9.27;68.73
19761;BME280;10039;42.632;23.408;2023-04-22T02:04:59;94658.50;;;9.25;68.44
19761;BME280;10039;42.632;23.408;2023-04-22T02:07:25;94702.69;;;9.42;68.54
19761;BME280;10039;42.632;23.408;2023-04-22T02:09:51;94661.38;;;9.15;69.00
19761;BME280;10039;42.632;23.408;2023-04-22T02:12:17;94683.34;;;8.99;69.85
19761;BME280;10039;42.632;23.408;2023-04-22T02:14:43;94660.03;;;8.84;69.75
19761;BME280;10039;42.632;23.408;2023-04-22T02:17:09;94676.41;;;8.83;70.30
19761;BME280;10039;42.632;23.408;2023-04-22T02:19:35;94669.28;;;8.76;70.55
19761;BME280;10039;42.632;23.408;2023-04-22T02:22:01;94668.41;;;8.83;70.59
19761;BME280;10039;42.632;23.408;2023-04-22T02:24:27;94641.31;;;8.68;70.37
19761;BME280;10039;42.632;23.408;2023-04-22T02:26:53;94643.78;;;8.56;70.55
19761;BME280;10039;42.632;23.408;2023-04-22T02:29:20;94691.97;;;8.84;70.96
19761;BME280;10039;42.632;23.408;2023-04-22T02:31:46;94656.63;;;8.61;71.08
19761;BME280;10039;42.632;23.408;2023-04-22T02:34:13;94703.94;;;8.95;70.38
19761;BME280;10039;42.632;23.408;2023-04-22T02:36:38;94693.22;;;8.99;70.47
19761;BME280;10039;42.632;23.408;2023-04-22T02:39:04;94697.53;;;9.12;69.96
19761;BME280;10039;42.632;23.408;2023-04-22T02:41:33;94700.44;;;9.21;69.56
19761;BME280;10039;42.632;23.408;2023-04-22T02:44:01;94690.66;;;9.15;69.81
19761;BME280;10039;42.632;23.408;2023-04-22T02:46:27;94661.59;;;8.82;69.37
19761;BME280;10039;42.632;23.408;2023-04-22T02:48:56;94706.69;;;9.11;69.52
19761;BME280;10039;42.632;23.408;2023-04-22T02:51:22;94682.75;;;8.88;70.14
19761;BME280;10039;42.632;23.408;2023-04-22T02:53:49;94706.13;;;9.00;70.57
19761;BME280;10039;42.632;23.408;2023-04-22T02:56:18;94676.75;;;8.85;70.65
19761;BME280;10039;42.632;23.408;2023-04-22T02:58:47;94721.16;;;9.10;70.50
19761;BME280;10039;42.632;23.408;2023-04-22T03:01:14;94678.25;;;8.86;70.27
19761;BME280;10039;42.632;23.408;2023-04-22T03:03:42;94714.31;;;9.09;69.91
19761;BME280;10039;42.632;23.408;2023-04-22T03:06:08;94667.56;;;8.66;69.94
19761;BME280;10039;42.632;23.408;2023-04-22T03:08:34;94708.84;;;8.74;70.24
19761;BME280;10039;42.632;23.408;2023-04-22T03:11:11;94668.44;;;8.60;70.37
19761;BME280;10039;42.632;23.408;2023-04-22T03:13:41;94662.66;;;8.42;70.91
19761;BME280;10039;42.632;23.408;2023-04-22T03:16:07;94702.31;;;8.56;71.02
19761;BME280;10039;42.632;23.408;2023-04-22T03:18:33;94661.06;;;8.21;71.54
19761;BME280;10039;42.632;23.408;2023-04-22T03:20:59;94718.25;;;8.56;72.26
19761;BME280;10039;42.632;23.408;2023-04-22T03:23:25;94667.88;;;8.22;72.75
19761;BME280;10039;42.632;23.408;2023-04-22T03:25:51;94680.41;;;8.22;73.53
19761;BME280;10039;42.632;23.408;2023-04-22T03:28:20;94666.47;;;8.14;73.27
19761;BME280;10039;42.632;23.408;2023-04-22T03:30:49;94672.84;;;8.20;73.20
19761;BME280;10039;42.632;23.408;2023-04-22T03:33:15;94691.59;;;8.36;73.12
19761;BME280;10039;42.632;23.408;2023-04-22T03:35:41;94711.88;;;8.50;72.94
19761;BME280;10039;42.632;23.408;2023-04-22T03:38:15;94701.66;;;8.48;72.35
19761;BME280;10039;42.632;23.408;2023-04-22T03:40:41;94703.22;;;8.46;72.34
19761;BME280;10039;42.632;23.408;2023-04-22T03:43:08;94684.19;;;8.24;72.25
19761;BME280;10039;42.632;23.408;2023-04-22T03:45:34;94731.38;;;8.43;72.66
19761;BME280;10039;42.632;23.408;2023-04-22T03:48:01;94716.66;;;8.35;72.66
19761;BME280;10039;42.632;23.408;2023-04-22T03:50:27;94682.13;;;8.09;73.07
19761;BME280;10039;42.632;23.408;2023-04-22T03:52:53;94723.28;;;8.24;73.73
19761;BME280;10039;42.632;23.408;2023-04-22T03:55:22;94731.13;;;8.34;73.59
19761;BME280;10039;42.632;23.408;2023-04-22T03:57:48;94711.81;;;8.30;73.27
19761;BME280;10039;42.632;23.408;2023-04-22T04:00:16;94692.16;;;8.24;72.80
19761;BME280;10039;42.632;23.408;2023-04-22T04:02:42;94683.06;;;8.22;72.89
19761;BME280;10039;42.632;23.408;2023-04-22T04:05:09;94724.72;;;8.32;73.52
19761;BME280;10039;42.632;23.408;2023-04-22T04:07:36;94696.91;;;8.10;73.63
19761;BME280;10039;42.632;23.408;2023-04-22T04:10:04;94739.09;;;8.34;73.94
19761;BME280;10039;42.632;23.408;2023-04-22T04:12:32;94698.34;;;8.14;74.13
19761;BME280;10039;42.632;23.408;2023-04-22T04:14:57;94731.88;;;8.35;73.90
19761;BME280;10039;42.632;23.408;2023-04-22T04:17:23;94720.91;;;8.33;73.86
19761;BME280;10039;42.632;23.408;2023-04-22T04:19:51;94716.38;;;8.30;73.69
19761;BME280;10039;42.632;23.408;2023-04-22T04:22:19;94725.16;;;8.53;73.26
19761;BME280;10039;42.632;23.408;2023-04-22T04:24:47;94741.28;;;8.66;73.59
19761;BME280;10039;42.632;23.408;2023-04-22T04:27:14;94737.72;;;8.76;73.08
19761;BME280;10039;42.632;23.408;2023-04-22T04:29:40;94726.31;;;8.52;73.39
19761;BME280;10039;42.632;23.408;2023-04-22T04:32:09;94742.03;;;8.66;73.23
19761;BME280;10039;42.632;23.408;2023-04-22T04:34:35;94726.88;;;8.63;73.15
19761;BME280;10039;42.632;23.408;2023-04-22T04:37:04;94729.50;;;8.67;72.70
19761;BME280;10039;42.632;23.408;2023-04-22T04:39:30;94724.09;;;8.70;73.29
19761;BME280;10039;42.632;23.408;2023-04-22T04:41:57;94720.13;;;8.82;72.18
19761;BME280;10039;42.632;23.408;2023-04-22T04:44:24;94761.03;;;8.91;72.75
19761;BME280;10039;42.632;23.408;2023-04-22T04:46:56;94762.03;;;9.00;72.02
19761;BME280;10039;42.632;23.408;2023-04-22T04:49:22;94799.88;;;9.34;71.41
19761;BME280;10039;42.632;23.408;2023-04-22T04:51:48;94777.13;;;9.49;71.07
19761;BME280;10039;42.632;23.408;2023-04-22T04:54:14;94761.78;;;9.37;70.74
19761;BME280;10039;42.632;23.408;2023-04-22T04:56:40;94801.47;;;9.71;70.67
19761;BME280;10039;42.632;23.408;2023-04-22T04:59:07;94778.75;;;9.66;69.79
19761;BME280;10039;42.632;23.408;2023-04-22T05:01:33;94786.88;;;9.79;70.29
19761;BME280;10039;42.632;23.408;2023-04-22T05:04:02;94801.03;;;9.95;69.81
19761;BME280;10039;42.632;23.408;2023-04-22T05:06:28;94766.03;;;9.93;69.80
19761;BME280;10039;42.632;23.408;2023-04-22T05:08:54;94767.72;;;10.22;68.64
19761;BME280;10039;42.632;23.408;2023-04-22T05:11:20;94780.34;;;10.38;68.48
19761;BME280;10039;42.632;23.408;2023-04-22T05:13:49;94807.53;;;10.84;67.89
19761;BME280;10039;42.632;23.408;2023-04-22T05:16:15;94763.97;;;10.55;67.48
19761;BME280;10039;42.632;23.408;2023-04-22T05:18:40;94798.84;;;10.64;67.67
19761;BME280;10039;42.632;23.408;2023-04-22T05:21:06;94759.97;;;10.47;68.14
19761;BME280;10039;42.632;23.408;2023-04-22T05:23:32;94790.69;;;10.87;67.26
19761;BME280;10039;42.632;23.408;2023-04-22T05:26:01;94774.03;;;10.83;68.02
19761;BME280;10039;42.632;23.408;2023-04-22T05:28:27;94787.03;;;11.13;67.94
19761;BME280;10039;42.632;23.408;2023-04-22T05:30:52;94777.50;;;11.28;66.81
19761;BME280;10039;42.632;23.408;2023-04-22T05:33:21;94816.63;;;11.34;67.30
19761;BME280;10039;42.632;23.408;2023-04-22T05:35:47;94757.41;;;11.08;67.40
19761;BME280;10039;42.632;23.408;2023-04-22T05:38:13;94761.75;;;11.17;66.98
19761;BME280;10039;42.632;23.408;2023-04-22T05:40:59;94763.13;;;11.38;67.29
19761;BME280;10039;42.632;23.408;2023-04-22T05:43:24;94798.72;;;11.79;66.04
19761;BME280;10039;42.632;23.408;2023-04-22T05:45:50;94764.25;;;11.24;66.80
19761;BME280;10039;42.632;23.408;2023-04-22T05:48:16;94775.94;;;11.30;68.23
19761;BME280;10039;42.632;23.408;2023-04-22T05:50:42;94783.16;;;11.62;67.55
19761;BME280;10039;42.632;23.408;2023-04-22T05:53:08;94797.97;;;12.07;65.90
19761;BME280;10039;42.632;23.408;2023-04-22T05:55:34;94777.56;;;12.13;64.81
19761;BME280;10039;42.632;23.408;2023-04-22T05:58:00;94752.31;;;12.14;65.18
19761;BME280;10039;42.632;23.408;2023-04-22T06:00:25;94754.88;;;12.30;63.87
19761;BME280;10039;42.632;23.408;2023-04-22T06:02:51;94761.13;;;12.39;63.97
19761;BME280;10039;42.632;23.408;2023-04-22T06:05:16;94752.22;;;12.30;62.95
19761;BME280;10039;42.632;23.408;2023-04-22T06:07:42;94784.78;;;12.41;63.59
19761;BME280;10039;42.632;23.408;2023-04-22T06:10:08;94755.97;;;12.45;62.58
19761;BME280;10039;42.632;23.408;2023-04-22T06:12:34;94774.41;;;12.68;62.98
19761;BME280;10039;42.632;23.408;2023-04-22T06:15:03;94788.13;;;13.07;61.83
19761;BME280;10039;42.632;23.408;2023-04-22T06:17:38;94771.50;;;13.25;62.16
19761;BME280;10039;42.632;23.408;2023-04-22T06:20:17;94798.63;;;13.60;61.58
19761;BME280;10039;42.632;23.408;2023-04-22T06:22:43;94753.22;;;13.44;60.87
19761;BME280;10039;42.632;23.408;2023-04-22T06:25:09;94756.97;;;13.47;60.62
19761;BME280;10039;42.632;23.408;2023-04-22T06:27:35;94758.78;;;13.50;60.55
19761;BME280;10039;42.632;23.408;2023-04-22T06:30:02;94787.84;;;14.07;60.01
19761;BME280;10039;42.632;23.408;2023-04-22T06:32:31;94764.63;;;14.13;58.60
19761;BME280;10039;42.632;23.408;2023-04-22T06:34:57;94799.78;;;14.49;58.05
19761;BME280;10039;42.632;23.408;2023-04-22T06:37:30;94788.88;;;14.52;57.60
19761;BME280;10039;42.632;23.408;2023-04-22T06:39:58;94785.25;;;14.37;57.25
19761;BME280;10039;42.632;23.408;2023-04-22T06:42:27;94759.19;;;14.47;57.56
19761;BME280;10039;42.632;23.408;2023-04-22T06:44:55;94765.19;;;14.51;56.88
19761;BME280;10039;42.632;23.408;2023-04-22T06:47:21;94819.50;;;14.55;57.18
19761;BME280;10039;42.632;23.408;2023-04-22T06:49:47;94802.91;;;14.47;58.75
19761;BME280;10039;42.632;23.408;2023-04-22T06:52:14;94770.81;;;14.44;57.61
19761;BME280;10039;42.632;23.408;2023-04-22T06:54:43;94801.34;;;14.67;57.97
19761;BME280;10039;42.632;23.408;2023-04-22T06:57:09;94793.28;;;14.98;56.82
19761;BME280;10039;42.632;23.408;2023-04-22T06:59:35;94790.34;;;15.14;55.79
19761;BME280;10039;42.632;23.408;2023-04-22T07:02:01;94781.63;;;15.40;56.50
19761;BME280;10039;42.632;23.408;2023-04-22T07:04:30;94764.63;;;15.43;55.97
19761;BME280;10039;42.632;23.408;2023-04-22T07:06:59;94761.75;;;15.47;54.49
19761;BME280;10039;42.632;23.408;2023-04-22T07:09:26;94768.53;;;15.69;55.50
19761;BME280;10039;42.632;23.408;2023-04-22T07:11:53;94808.00;;;15.72;54.28
19761;BME280;10039;42.632;23.408;2023-04-22T07:14:18;94771.94;;;15.52;55.13
19761;BME280;10039;42.632;23.408;2023-04-22T07:16:47;94788.56;;;15.77;55.39
19761;BME280;10039;42.632;23.408;2023-04-22T07:19:17;94772.09;;;16.02;55.13
19761;BME280;10039;42.632;23.408;2023-04-22T07:21:42;94770.44;;;16.13;53.77
19761;BME280;10039;42.632;23.408;2023-04-22T07:24:08;94760.00;;;16.33;53.28
19761;BME280;10039;42.632;23.408;2023-04-22T07:26:47;94799.63;;;16.42;52.86
19761;BME280;10039;42.632;23.408;2023-04-22T07:29:12;94802.38;;;16.83;52.68
19761;BME280;10039;42.632;23.408;2023-04-22T07:31:40;94782.50;;;16.63;52.81
19761;BME280;10039;42.632;23.408;2023-04-22T07:34:06;94768.09;;;16.75;52.53
19761;BME280;10039;42.632;23.408;2023-04-22T07:36:35;94808.78;;;17.27;52.05
19761;BME280;10039;42.632;23.408;2023-04-22T07:39:03;94767.50;;;17.12;50.55
19761;BME280;10039;42.632;23.408;2023-04-22T07:41:41;94782.56;;;17.60;50.95
19761;BME280;10039;42.632;23.408;2023-04-22T07:44:09;94780.91;;;17.77;50.55
19761;BME280;10039;42.632;23.408;2023-04-22T07:46:39;94799.16;;;18.05;49.65
19761;BME280;10039;42.632;23.408;2023-04-22T07:49:13;94772.41;;;17.93;49.88
19761;BME280;10039;42.632;23.408;2023-04-22T07:51:44;94794.69;;;18.25;48.32
19761;BME280;10039;42.632;23.408;2023-04-22T07:54:10;94764.44;;;18.12;49.21
19761;BME280;10039;42.632;23.408;2023-04-22T07:56:42;94756.66;;;18.29;48.74
19761;BME280;10039;42.632;23.408;2023-04-22T07:59:10;94773.16;;;18.45;47.46
19761;BME280;10039;42.632;23.408;2023-04-22T08:01:36;94785.94;;;18.88;47.24
19761;BME280;10039;42.632;23.408;2023-04-22T08:04:08;94786.94;;;18.91;46.17
19761;BME280;10039;42.632;23.408;2023-04-22T08:06:38;94788.25;;;18.95;46.76
19761;BME280;10039;42.632;23.408;2023-04-22T08:09:08;94748.19;;;18.65;45.53
19761;BME280;10039;42.632;23.408;2023-04-22T08:14:17;94760.25;;;18.98;44.54
19761;BME280;10039;42.632;23.408;2023-04-22T08:16:42;94737.81;;;18.34;44.85
19761;BME280;10039;42.632;23.408;2023-04-22T08:19:08;94736.78;;;17.42;47.46
19761;BME280;10039;42.632;23.408;2023-04-22T08:21:34;94765.59;;;16.62;50.08
19761;BME280;10039;42.632;23.408;2023-04-22T08:24:01;94748.13;;;16.90;50.00
19761;BME280;10039;42.632;23.408;2023-04-22T08:26:27;94740.34;;;17.48;48.56
19761;BME280;10039;42.632;23.408;2023-04-22T08:28:56;94742.41;;;17.91;47.42
19761;BME280;10039;42.632;23.408;2023-04-22T08:31:22;94760.00;;;18.38;46.82
19761;BME280;10039;42.632;23.408;2023-04-22T08:33:52;94761.69;;;18.65;47.61
19761;BME280;10039;42.632;23.408;2023-04-22T08:36:18;94728.50;;;18.79;46.95
19761;BME280;10039;42.632;23.408;2023-04-22T08:38:53;94762.28;;;19.52;45.99
19761;BME280;10039;42.632;23.408;2023-04-22T08:41:27;94753.00;;;19.78;43.11
19761;BME280;10039;42.632;23.408;2023-04-22T08:43:57;94724.31;;;19.66;43.43
19761;BME280;10039;42.632;23.408;2023-04-22T08:46:34;94718.97;;;19.52;44.26
19761;BME280;10039;42.632;23.408;2023-04-22T08:49:00;94699.84;;;20.01;43.46
19761;BME280;10039;42.632;23.408;2023-04-22T08:51:29;94708.28;;;20.33;44.10
19761;BME280;10039;42.632;23.408;2023-04-22T08:54:16;94694.59;;;20.48;41.82
19761;BME280;10039;42.632;23.408;2023-04-22T08:56:49;94697.84;;;20.52;40.80
19761;BME280;10039;42.632;23.408;2023-04-22T08:59:19;94730.22;;;20.86;42.40
19761;BME280;10039;42.632;23.408;2023-04-22T09:01:51;94691.44;;;20.80;42.58
19761;BME280;10039;42.632;23.408;2023-04-22T09:04:21;94714.13;;;21.19;41.52
19761;BME280;10039;42.632;23.408;2023-04-22T09:13:12;94683.69;;;21.46;40.18
19761;BME280;10039;42.632;23.408;2023-04-22T09:16:05;94678.38;;;21.21;39.69
19761;BME280;10039;42.632;23.408;2023-04-22T09:18:46;94701.81;;;21.18;38.50
19761;BME280;10039;42.632;23.408;2023-04-22T09:21:16;94693.94;;;20.58;40.00
19761;BME280;10039;42.632;23.408;2023-04-22T09:23:52;94714.16;;;20.57;41.07
19761;BME280;10039;42.632;23.408;2023-04-22T09:26:31;94694.56;;;20.42;40.52
19761;BME280;10039;42.632;23.408;2023-04-22T09:29:03;94691.88;;;20.17;40.76
19761;BME280;10039;42.632;23.408;2023-04-22T09:31:37;94718.03;;;20.45;42.11
19761;BME280;10039;42.632;23.408;2023-04-22T09:36:50;94676.47;;;19.83;41.79
19761;BME280;10039;42.632;23.408;2023-04-22T09:39:29;94703.50;;;19.78;41.53
19761;BME280;10039;42.632;23.408;2023-04-22T09:42:09;94656.34;;;19.24;42.00
19761;BME280;10039;42.632;23.408;2023-04-22T09:44:38;94686.34;;;19.41;41.57
19761;BME280;10039;42.632;23.408;2023-04-22T09:47:04;94695.13;;;19.36;41.78
19761;BME280;10039;42.632;23.408;2023-04-22T09:49:35;94666.13;;;19.02;41.36
19761;BME280;10039;42.632;23.408;2023-04-22T09:52:07;94669.25;;;18.95;41.05
19761;BME280;10039;42.632;23.408;2023-04-22T10:06:58;94660.75;;;17.96;42.25
19761;BME280;10039;42.632;23.408;2023-04-22T10:09:56;94680.72;;;17.60;43.45
19761;BME280;10039;42.632;23.408;2023-04-22T10:15:24;94684.66;;;16.80;43.99
19761;BME280;10039;42.632;23.408;2023-04-22T10:18:02;94702.09;;;16.70;42.86
19761;BME280;10039;42.632;23.408;2023-04-22T10:20:49;94721.25;;;16.72;42.62
19761;BME280;10039;42.632;23.408;2023-04-22T10:29:44;94720.09;;;16.55;42.79
19761;BME280;10039;42.632;23.408;2023-04-22T10:37:23;94717.09;;;16.62;43.79
19761;BME280;10039;42.632;23.408;2023-04-22T10:43:03;94684.72;;;16.71;43.91
19761;BME280;10039;42.632;23.408;2023-04-22T10:51:55;94693.81;;;17.53;41.11
19761;BME280;10039;42.632;23.408;2023-04-22T10:57:39;94709.41;;;17.25;40.15
19761;BME280;10039;42.632;23.408;2023-04-22T11:03:10;94690.31;;;17.38;41.03
19761;BME280;10039;42.632;23.408;2023-04-22T11:19:35;94649.78;;;17.47;40.19
19761;BME280;10039;42.632;23.408;2023-04-22T11:25:25;94660.00;;;17.81;39.81
19761;BME280;10039;42.632;23.408;2023-04-22T11:28:43;94687.00;;;17.43;40.05
19761;BME280;10039;42.632;23.408;2023-04-22T11:34:56;94690.50;;;16.88;41.93
19761;BME280;10039;42.632;23.408;2023-04-22T11:38:09;94697.06;;;17.10;41.61
19761;BME280;10039;42.632;23.408;2023-04-22T11:41:10;94700.41;;;17.28;41.87
19761;BME280;10039;42.632;23.408;2023-04-22T11:48:01;94721.88;;;17.23;42.31
19761;BME280;10039;42.632;23.408;2023-04-22T11:51:20;94678.31;;;16.92;42.94
19761;BME280;10039;42.632;23.408;2023-04-22T12:00:29;94710.41;;;17.37;42.38
19761;BME280;10039;42.632;23.408;2023-04-22T12:03:25;94684.41;;;17.01;42.13
19761;BME280;10039;42.632;23.408;2023-04-22T12:06:29;94693.97;;;17.02;41.90
19761;BME280;10039;42.632;23.408;2023-04-22T12:09:03;94686.91;;;16.82;41.88
19761;BME280;10039;42.632;23.408;2023-04-22T12:21:14;94728.00;;;17.23;43.09
19761;BME280;10039;42.632;23.408;2023-04-22T12:23:51;94703.53;;;16.80;43.61
19761;BME280;10039;42.632;23.408;2023-04-22T12:26:46;94690.78;;;16.48;44.75
19761;BME280;10039;42.632;23.408;2023-04-22T12:29:30;94733.25;;;16.62;46.07
19761;BME280;10039;42.632;23.408;2023-04-22T12:35:22;94705.22;;;16.78;45.55
19761;BME280;10039;42.632;23.408;2023-04-22T12:37:54;94705.72;;;16.58;44.50
19761;BME280;10039;42.632;23.408;2023-04-22T12:40:26;94701.75;;;16.77;44.37
19761;BME280;10039;42.632;23.408;2023-04-22T12:42:55;94703.22;;;16.87;45.47
19761;BME280;10039;42.632;23.408;2023-04-22T12:52:26;94695.63;;;16.26;47.94
19761;BME280;10039;42.632;23.408;2023-04-22T12:55:03;94734.69;;;16.40;48.38
19761;BME280;10039;42.632;23.408;2023-04-22T13:00:21;94694.94;;;15.99;49.34
19761;BME280;10039;42.632;23.408;2023-04-22T13:06:10;94705.88;;;16.04;48.64
19761;BME280;10039;42.632;23.408;2023-04-22T13:15:43;94678.53;;;15.79;48.88
19761;BME280;10039;42.632;23.408;2023-04-22T13:21:12;94715.09;;;16.21;48.75
19761;BME280;10039;42.632;23.408;2023-04-22T13:24:03;94726.75;;;16.27;48.34
19761;BME280;10039;42.632;23.408;2023-04-22T13:26:39;94704.31;;;16.21;48.44
19761;BME280;10039;42.632;23.408;2023-04-22T13:29:11;94693.41;;;16.25;48.23
19761;BME280;10039;42.632;23.408;2023-04-22T13:31:42;94699.50;;;16.43;46.54
19761;BME280;10039;42.632;23.408;2023-04-22T13:34:12;94676.94;;;16.32;46.92
19761;BME280;10039;42.632;23.408;2023-04-22T13:36:47;94656.81;;;16.51;46.70
19761;BME280;10039;42.632;23.408;2023-04-22T13:42:18;94702.59;;;16.92;45.12
19761;BME280;10039;42.632;23.408;2023-04-22T13:44:58;94673.06;;;16.65;44.93
19761;BME280;10039;42.632;23.408;2023-04-22T13:47:25;94680.75;;;16.81;44.86
19761;BME280;10039;42.632;23.408;2023-04-22T13:49:51;94676.03;;;16.99;44.69
19761;BME280;10039;42.632;23.408;2023-04-22T13:52:23;94708.22;;;17.03;41.68
19761;BME280;10039;42.632;23.408;2023-04-22T13:54:49;94680.84;;;16.95;42.32
19761;BME280;10039;42.632;23.408;2023-04-22T13:57:15;94695.28;;;17.07;42.72
19761;BME280;10039;42.632;23.408;2023-04-22T14:00:02;94671.38;;;17.00;42.31
19761;BME280;10039;42.632;23.408;2023-04-22T14:05:22;94697.38;;;17.12;40.60
19761;BME280;10039;42.632;23.408;2023-04-22T14:07:59;94677.38;;;17.04;41.47
19761;BME280;10039;42.632;23.408;2023-04-22T14:10:34;94687.47;;;17.41;42.32
19761;BME280;10039;42.632;23.408;2023-04-22T14:13:06;94685.47;;;17.65;41.77
19761;BME280;10039;42.632;23.408;2023-04-22T14:15:41;94714.59;;;17.99;41.09
19761;BME280;10039;42.632;23.408;2023-04-22T14:18:12;94659.81;;;17.84;40.19
19761;BME280;10039;42.632;23.408;2023-04-22T14:20:38;94660.28;;;17.97;39.52
19761;BME280;10039;42.632;23.408;2023-04-22T14:23:10;94687.16;;;18.29;40.06
19761;BME280;10039;42.632;23.408;2023-04-22T14:25:52;94659.84;;;18.13;39.28
19761;BME280;10039;42.632;23.408;2023-04-22T14:32:16;94715.53;;;18.10;37.45
19761;BME280;10039;42.632;23.408;2023-04-22T14:35:21;94667.72;;;17.88;37.58
19761;BME280;10039;42.632;23.408;2023-04-22T14:37:46;94717.22;;;18.22;38.13
19761;BME280;10039;42.632;23.408;2023-04-22T14:45:58;94709.47;;;18.73;37.58
19761;BME280;10039;42.632;23.408;2023-04-22T14:48:54;94685.78;;;18.68;36.81
19761;BME280;10039;42.632;23.408;2023-04-22T14:51:35;94666.44;;;18.55;36.64
19761;BME280;10039;42.632;23.408;2023-04-22T14:54:09;94693.59;;;18.95;37.38
19761;BME280;10039;42.632;23.408;2023-04-22T14:56:44;94703.03;;;19.05;36.86
19761;BME280;10039;42.632;23.408;2023-04-22T14:59:20;94666.66;;;18.86;37.07
19761;BME280;10039;42.632;23.408;2023-04-22T15:04:45;94713.22;;;19.10;36.85
19761;BME280;10039;42.632;23.408;2023-04-22T15:07:59;94686.50;;;18.83;37.21
19761;BME280;10039;42.632;23.408;2023-04-22T15:10:26;94699.19;;;19.26;37.90
19761;BME280;10039;42.632;23.408;2023-04-22T15:13:23;94692.56;;;19.47;38.42
19761;BME280;10039;42.632;23.408;2023-04-22T15:16:00;94646.47;;;19.21;38.15
19761;BME280;10039;42.632;23.408;2023-04-22T15:18:43;94644.47;;;19.02;37.26
19761;BME280;10039;42.632;23.408;2023-04-22T15:21:42;94667.81;;;19.00;37.18
19761;BME280;10039;42.632;23.408;2023-04-22T15:24:11;94648.31;;;18.76;37.76
19761;BME280;10039;42.632;23.408;2023-04-22T15:26:51;94673.00;;;19.03;37.32
19761;BME280;10039;42.632;23.408;2023-04-22T15:29:24;94684.34;;;19.21;38.47
19761;BME280;10039;42.632;23.408;2023-04-22T15:31:56;94661.72;;;19.19;38.47